Time;durP1;ratioP1;P1;durP2;ratioP2;P2;SDS_P1;SDS_P2;PMS_P1;PMS_P2;Temp;Humidity;BMP_temperature;BMP_pressure;BME280_temperature;BME280_humidity;BME280_pressure;Samples;Min_cycle;Max_cycle;Signal;HPM_P1;HPM_P2
2021/05/31 00:01:47;;;;;;;6.28;3.90;;;;;;;;;;5024280;28;20018;-81
2021/05/31 00:04:12;;;;;;;9.73;4.50;;;;;;;;;;5023838;28;20690;-81
2021/05/31 00:07:01;;;;;;;7.63;4.45;;;;;;;;;;5008915;28;20017;-81
2021/05/31 00:09:26;;;;;;;5.18;4.03;;;;;;;;;;5008917;28;20018;-81
2021/05/31 00:11:51;;;;;;;8.68;4.25;;;;;;;;;;5010980;28;20569;-81
2021/05/31 00:14:17;;;;;;;8.15;4.90;;;;;;;;;;5011967;28;20102;-81
2021/05/31 00:16:42;;;;;;;6.30;4.25;;;;;;;;;;5011979;28;20376;-81
2021/05/31 00:19:09;;;;;;;9.20;4.18;;;;;;;;;;5010882;28;20030;-81
2021/05/31 00:21:34;;;;;;;6.72;4.13;;;;;;;;;;5027078;28;20505;-81
2021/05/31 00:23:59;;;;;;;10.68;4.57;;;;;;;;;;5026359;28;20029;-81
2021/05/31 00:26:25;;;;;;;8.63;4.15;;;;;;;;;;5012173;28;20040;-81
2021/05/31 00:28:50;;;;;;;7.25;4.80;;;;;;;;;;5010575;28;20429;-81
2021/05/31 00:31:15;;;;;;;6.75;4.85;;;;;;;;;;5011405;28;20067;-81
2021/05/31 00:33:41;;;;;;;6.10;4.22;;;;;;;;;;5010555;28;20058;-81
2021/05/31 00:36:07;;;;;;;7.15;4.30;;;;;;;;;;5011776;28;20041;-81
2021/05/31 00:38:32;;;;;;;8.38;4.28;;;;;;;;;;5026406;28;20048;-80
2021/05/31 00:40:58;;;;;;;8.40;4.75;;;;;;;;;;5011768;28;20039;-81
2021/05/31 00:43:25;;;;;;;7.20;4.78;;;;;;;;;;5011484;28;20075;-81
2021/05/31 00:45:50;;;;;;;11.05;4.95;;;;;;;;;;5011173;28;20021;-81
2021/05/31 00:48:15;;;;;;;7.00;4.32;;;;;;;;;;5010191;28;20437;-81
2021/05/31 00:50:43;;;;;;;7.47;4.63;;;;;;;;;;5011664;28;20022;-80
2021/05/31 00:53:08;;;;;;;12.60;4.93;;;;;;;;;;5010412;28;20026;-81
2021/05/31 00:55:33;;;;;;;7.93;4.95;;;;;;;;;;5011138;28;20032;-80
2021/05/31 00:57:59;;;;;;;9.40;4.78;;;;;;;;;;5010899;28;20369;-80
2021/05/31 01:00:26;;;;;;;7.90;4.88;;;;;;;;;;5011300;28;20154;-80
2021/05/31 01:02:51;;;;;;;6.10;4.25;;;;;;;;;;5011314;28;20029;-81
2021/05/31 01:05:17;;;;;;;9.35;4.60;;;;;;;;;;5011214;28;20477;-81
2021/05/31 01:07:45;;;;;;;8.77;5.15;;;;;;;;;;5011130;28;20021;-81
2021/05/31 01:10:18;;;;;;;8.95;5.13;;;;;;;;;;5010922;28;20102;-81
2021/05/31 01:12:47;;;;;;;9.40;4.68;;;;;;;;;;5009985;28;20046;-81
2021/05/31 01:15:17;;;;;;;10.38;4.82;;;;;;;;;;5008858;28;20113;-80
2021/05/31 01:17:42;;;;;;;8.75;5.13;;;;;;;;;;5009786;28;20037;-81
2021/05/31 01:20:09;;;;;;;10.75;5.30;;;;;;;;;;5010660;28;20018;-81
2021/05/31 01:22:35;;;;;;;8.13;5.15;;;;;;;;;;5009006;28;20029;-81
2021/05/31 01:25:23;;;;;;;7.90;5.25;;;;;;;;;;5010930;28;20022;-81
2021/05/31 01:27:58;;;;;;;9.07;5.35;;;;;;;;;;5009775;28;20022;-81
2021/05/31 01:30:23;;;;;;;8.70;5.00;;;;;;;;;;5009503;28;20109;-81
2021/05/31 01:32:51;;;;;;;9.05;5.13;;;;;;;;;;5009663;28;20122;-81
2021/05/31 01:35:26;;;;;;;7.47;4.70;;;;;;;;;;5010547;28;20080;-81
2021/05/31 01:37:53;;;;;;;9.90;5.18;;;;;;;;;;5009429;28;20022;-81
2021/05/31 01:40:20;;;;;;;8.57;5.47;;;;;;;;;;5008999;28;20366;-81
2021/05/31 01:42:45;;;;;;;8.48;4.80;;;;;;;;;;5010376;28;20100;-81
2021/05/31 01:45:11;;;;;;;8.13;5.38;;;;;;;;;;5008824;28;20074;-81
2021/05/31 01:47:36;;;;;;;14.52;5.60;;;;;;;;;;5010690;28;20017;-81
2021/05/31 01:50:03;;;;;;;11.40;5.82;;;;;;;;;;5009143;28;20025;-80
2021/05/31 01:52:28;;;;;;;9.40;5.32;;;;;;;;;;5009172;28;20091;-81
2021/05/31 01:54:55;;;;;;;9.60;5.72;;;;;;;;;;5025510;28;20026;-81
2021/05/31 01:57:21;;;;;;;10.85;6.65;;;;;;;;;;5010727;28;20321;-81
2021/05/31 01:59:47;;;;;;;7.93;5.47;;;;;;;;;;5008947;28;20045;-80
2021/05/31 02:02:12;;;;;;;7.90;5.68;;;;;;;;;;5010514;28;20056;-81
2021/05/31 02:04:37;;;;;;;8.50;5.47;;;;;;;;;;5009130;28;20037;-81
2021/05/31 02:07:02;;;;;;;20.02;5.63;;;;;;;;;;5010446;28;20425;-81
2021/05/31 02:09:27;;;;;;;9.98;5.25;;;;;;;;;;5009874;28;20022;-81
2021/05/31 02:12:12;;;;;;;9.40;5.78;;;;;;;;;;5010219;28;20097;-81
2021/05/31 02:14:37;;;;;;;11.50;6.25;;;;;;;;;;5009860;28;20358;-81
2021/05/31 02:17:12;;;;;;;12.77;5.90;;;;;;;;;;5010617;28;20075;-81
2021/05/31 02:19:38;;;;;;;9.10;5.70;;;;;;;;;;5008947;28;20018;-80
2021/05/31 02:22:05;;;;;;;8.57;6.05;;;;;;;;;;5010007;28;20036;-81
2021/05/31 02:24:34;;;;;;;7.75;5.55;;;;;;;;;;5008795;28;20430;-81
2021/05/31 02:26:59;;;;;;;9.80;5.53;;;;;;;;;;5009924;28;20026;-81
2021/05/31 02:29:25;;;;;;;15.30;5.95;;;;;;;;;;5009976;28;20017;-81
2021/05/31 02:31:52;;;;;;;10.50;5.90;;;;;;;;;;5010096;28;20017;-81
2021/05/31 02:34:17;;;;;;;11.35;6.45;;;;;;;;;;5024729;28;20366;-81
2021/05/31 02:36:42;;;;;;;11.50;6.03;;;;;;;;;;5009910;28;20110;-80
2021/05/31 02:39:07;;;;;;;10.30;5.90;;;;;;;;;;5009813;28;20128;-81
2021/05/31 02:41:32;;;;;;;10.35;5.97;;;;;;;;;;5009798;28;20052;-81
2021/05/31 02:43:57;;;;;;;14.55;6.10;;;;;;;;;;5009573;28;20459;-81
2021/05/31 02:46:23;;;;;;;10.55;6.10;;;;;;;;;;5009428;28;20021;-81
2021/05/31 02:48:48;;;;;;;9.93;6.30;;;;;;;;;;5009671;28;20071;-81
2021/05/31 02:51:13;;;;;;;13.93;7.00;;;;;;;;;;5008332;28;20048;-81
2021/05/31 02:53:38;;;;;;;11.10;6.72;;;;;;;;;;5008303;28;20018;-80
2021/05/31 02:56:04;;;;;;;11.70;6.30;;;;;;;;;;5009540;28;20434;-80
2021/05/31 02:58:29;;;;;;;15.48;6.20;;;;;;;;;;5024988;28;20025;-80
2021/05/31 03:00:54;;;;;;;13.52;6.47;;;;;;;;;;5009400;28;20099;-80
2021/05/31 03:03:20;;;;;;;10.82;6.32;;;;;;;;;;5008554;28;20481;-80
2021/05/31 03:05:45;;;;;;;10.73;6.22;;;;;;;;;;5009509;28;20026;-80
2021/05/31 03:08:10;;;;;;;13.98;6.45;;;;;;;;;;5009354;28;20067;-80
2021/05/31 03:10:35;;;;;;;14.32;7.03;;;;;;;;;;5009597;28;20029;-80
2021/05/31 03:13:01;;;;;;;12.23;6.70;;;;;;;;;;5008004;28;20018;-81
2021/05/31 03:15:26;;;;;;;12.52;6.78;;;;;;;;;;5009360;28;20377;-80
2021/05/31 03:17:52;;;;;;;13.38;6.95;;;;;;;;;;5009465;28;20022;-80
2021/05/31 03:20:20;;;;;;;11.27;6.68;;;;;;;;;;5009165;28;20480;-80
2021/05/31 03:22:45;;;;;;;11.90;6.78;;;;;;;;;;5009468;28;20085;-80
2021/05/31 03:25:10;;;;;;;13.40;7.25;;;;;;;;;;5009105;28;20132;-81
2021/05/31 03:27:36;;;;;;;13.00;7.28;;;;;;;;;;5008412;28;20083;-80
2021/05/31 03:30:02;;;;;;;11.80;6.57;;;;;;;;;;5009190;28;20022;-81
2021/05/31 03:32:27;;;;;;;15.70;6.47;;;;;;;;;;5009235;28;20029;-81
2021/05/31 03:34:53;;;;;;;15.55;6.72;;;;;;;;;;5009426;28;20361;-80
2021/05/31 03:37:18;;;;;;;11.88;7.30;;;;;;;;;;5008921;28;20021;-80
2021/05/31 03:39:45;;;;;;;14.77;8.00;;;;;;;;;;5009184;28;20086;-80
2021/05/31 03:42:10;;;;;;;11.23;7.13;;;;;;;;;;5008924;28;20025;-80
2021/05/31 03:44:35;;;;;;;13.95;7.55;;;;;;;;;;5010348;28;20105;-80
2021/05/31 03:47:01;;;;;;;13.85;7.10;;;;;;;;;;5012434;28;20044;-81
2021/05/31 03:49:26;;;;;;;13.23;6.85;;;;;;;;;;5011153;28;20489;-81
2021/05/31 03:51:51;;;;;;;14.07;8.32;;;;;;;;;;5012553;28;20052;-80
2021/05/31 03:54:16;;;;;;;15.45;7.95;;;;;;;;;;5027578;28;20442;-80
2021/05/31 03:56:42;;;;;;;15.02;7.97;;;;;;;;;;5012522;28;21983;-80
2021/05/31 03:59:08;;;;;;;12.18;7.07;;;;;;;;;;5011056;28;20473;-81
2021/05/31 04:01:33;;;;;;;10.75;7.35;;;;;;;;;;5012309;28;20022;-81
2021/05/31 04:03:58;;;;;;;14.50;7.80;;;;;;;;;;5012409;28;20045;-81
2021/05/31 04:11:46;;;;;;;12.68;7.60;;;;;;;;;;5012089;28;20041;-80
2021/05/31 04:14:14;;;;;;;18.67;7.70;;;;;;;;;;5012211;28;20022;-81
2021/05/31 04:16:41;;;;;;;13.48;7.63;;;;;;;;;;5010818;28;20033;-81
2021/05/31 04:19:08;;;;;;;13.98;7.88;;;;;;;;;;5012287;28;20049;-81
2021/05/31 04:21:33;;;;;;;12.05;7.45;;;;;;;;;;5010507;28;20029;-81
2021/05/31 04:23:59;;;;;;;15.57;8.20;;;;;;;;;;5011877;28;20040;-81
2021/05/31 04:26:25;;;;;;;12.55;8.45;;;;;;;;;;5010445;28;20389;-80
2021/05/31 04:28:50;;;;;;;14.52;8.48;;;;;;;;;;5009809;28;20022;-81
2021/05/31 04:31:16;;;;;;;16.85;8.80;;;;;;;;;;5011792;28;20415;-80
2021/05/31 04:33:42;;;;;;;13.88;7.95;;;;;;;;;;5010455;28;20060;-81
2021/05/31 04:36:07;;;;;;;13.70;8.55;;;;;;;;;;5011579;28;20033;-81
2021/05/31 04:38:32;;;;;;;14.63;9.20;;;;;;;;;;5011832;28;20414;-80
2021/05/31 04:40:57;;;;;;;15.23;8.98;;;;;;;;;;5010202;28;20142;-80
2021/05/31 04:43:23;;;;;;;16.23;9.20;;;;;;;;;;5026771;28;20061;-80
2021/05/31 04:45:48;;;;;;;17.80;9.77;;;;;;;;;;5011251;28;20109;-80
2021/05/31 04:48:13;;;;;;;16.80;9.13;;;;;;;;;;5010416;28;20026;-80
2021/05/31 04:50:38;;;;;;;22.00;8.77;;;;;;;;;;5012025;28;20076;-81
2021/05/31 04:53:04;;;;;;;16.27;8.57;;;;;;;;;;5011145;28;20055;-80
2021/05/31 04:55:29;;;;;;;17.13;9.00;;;;;;;;;;5010433;28;20022;-80
2021/05/31 04:57:54;;;;;;;16.52;9.13;;;;;;;;;;5010783;28;20030;-80
2021/05/31 05:00:19;;;;;;;15.55;9.07;;;;;;;;;;5009522;28;20022;-80
2021/05/31 05:02:45;;;;;;;13.88;8.38;;;;;;;;;;5025191;28;20030;-81
2021/05/31 05:05:11;;;;;;;16.63;9.25;;;;;;;;;;5024897;28;20423;-81
2021/05/31 05:07:44;;;;;;;14.48;8.70;;;;;;;;;;5009490;28;20114;-81
2021/05/31 05:10:09;;;;;;;16.20;9.30;;;;;;;;;;5009711;28;20025;-81
2021/05/31 05:12:34;;;;;;;14.38;8.13;;;;;;;;;;5009828;28;20412;-81
2021/05/31 05:15:00;;;;;;;16.77;9.57;;;;;;;;;;5007920;28;20025;-81
2021/05/31 05:17:25;;;;;;;14.98;8.80;;;;;;;;;;5008058;28;20034;-81
2021/05/31 05:19:50;;;;;;;16.67;10.05;;;;;;;;;;5009043;28;20033;-81
2021/05/31 05:22:15;;;;;;;14.80;8.68;;;;;;;;;;5008642;28;20078;-81
2021/05/31 05:24:40;;;;;;;18.00;9.88;;;;;;;;;;5009650;28;20021;-81
2021/05/31 05:27:06;;;;;;;17.30;10.00;;;;;;;;;;5008736;28;20457;-81
2021/05/31 05:29:32;;;;;;;18.38;10.10;;;;;;;;;;5009206;28;20071;-81
2021/05/31 05:31:58;;;;;;;16.92;9.93;;;;;;;;;;5010859;28;20040;-81
2021/05/31 05:34:24;;;;;;;15.45;9.02;;;;;;;;;;5010838;28;20036;-80
2021/05/31 05:36:52;;;;;;;19.73;10.57;;;;;;;;;;5009522;28;20104;-81
2021/05/31 05:42:21;;;;;;;20.20;10.93;;;;;;;;;;4982672;28;20051;-81
2021/05/31 05:47:46;;;;;;;14.90;8.93;;;;;;;;;;4987411;28;20109;-81
2021/05/31 05:50:20;;;;;;;22.50;10.75;;;;;;;;;;5009391;28;20025;-81
2021/05/31 05:52:46;;;;;;;19.80;10.13;;;;;;;;;;5010181;28;20018;-80
2021/05/31 05:55:12;;;;;;;16.75;9.40;;;;;;;;;;5010181;28;20533;-81
2021/05/31 05:57:37;;;;;;;23.75;10.73;;;;;;;;;;5033972;28;20073;-81
2021/05/31 06:00:06;;;;;;;24.67;11.13;;;;;;;;;;5002288;28;20098;-82
2021/05/31 06:02:32;;;;;;;18.17;10.30;;;;;;;;;;5071923;28;20106;-81
2021/05/31 06:04:57;;;;;;;18.73;10.15;;;;;;;;;;5041333;28;20177;-81
2021/05/31 06:07:22;;;;;;;19.15;10.48;;;;;;;;;;5062230;28;20482;-81
2021/05/31 06:09:47;;;;;;;21.08;10.27;;;;;;;;;;5016016;28;20035;-81
2021/05/31 06:12:13;;;;;;;18.48;9.95;;;;;;;;;;5051354;28;20046;-81
2021/05/31 06:14:38;;;;;;;18.52;10.38;;;;;;;;;;5009152;28;20557;-81
2021/05/31 06:17:03;;;;;;;16.63;10.43;;;;;;;;;;5015716;28;20026;-81
2021/05/31 06:19:30;;;;;;;13.40;8.93;;;;;;;;;;5023100;28;20022;-81
2021/05/31 06:21:55;;;;;;;19.60;9.10;;;;;;;;;;5066722;28;20021;-81
2021/05/31 06:24:20;;;;;;;16.83;9.48;;;;;;;;;;5016504;28;20112;-81
2021/05/31 06:26:45;;;;;;;19.73;9.20;;;;;;;;;;5008328;28;20476;-81
2021/05/31 06:29:10;;;;;;;23.23;9.35;;;;;;;;;;5009714;28;20018;-81
2021/05/31 06:31:36;;;;;;;19.58;9.00;;;;;;;;;;5012248;28;20025;-81
2021/05/31 06:34:01;;;;;;;20.52;8.70;;;;;;;;;;5008425;28;20074;-80
2021/05/31 06:36:27;;;;;;;14.40;8.50;;;;;;;;;;5009871;28;20018;-80
2021/05/31 06:38:52;;;;;;;14.80;8.43;;;;;;;;;;5011430;28;20021;-81
2021/05/31 06:41:17;;;;;;;15.18;8.65;;;;;;;;;;5024388;28;20029;-81
2021/05/31 06:43:42;;;;;;;20.95;8.70;;;;;;;;;;5024831;28;20038;-81
2021/05/31 06:46:08;;;;;;;17.45;9.38;;;;;;;;;;5008464;28;20346;-81
2021/05/31 06:48:33;;;;;;;19.60;8.77;;;;;;;;;;5008333;28;20044;-81
2021/05/31 06:50:58;;;;;;;16.40;9.05;;;;;;;;;;5009479;28;20017;-81
2021/05/31 06:53:23;;;;;;;18.20;9.10;;;;;;;;;;5009621;28;20034;-80
2021/05/31 06:55:49;;;;;;;18.55;8.63;;;;;;;;;;5008047;28;20026;-81
2021/05/31 06:58:14;;;;;;;14.35;8.57;;;;;;;;;;5045780;28;20023;-81
2021/05/31 07:00:40;;;;;;;11.55;7.70;;;;;;;;;;5032997;28;20030;-81
2021/05/31 07:03:05;;;;;;;16.58;8.63;;;;;;;;;;5009255;28;20071;-80
2021/05/31 07:05:30;;;;;;;16.83;8.20;;;;;;;;;;5011199;28;20021;-81
2021/05/31 07:07:56;;;;;;;15.80;8.43;;;;;;;;;;5024292;28;20061;-80
2021/05/31 07:10:24;;;;;;;20.80;8.68;;;;;;;;;;5024206;28;20037;-81
2021/05/31 07:12:49;;;;;;;21.33;7.88;;;;;;;;;;5009492;28;20022;-80
2021/05/31 07:15:15;;;;;;;17.33;7.53;;;;;;;;;;5007890;28;20032;-81
2021/05/31 07:17:40;;;;;;;14.27;6.65;;;;;;;;;;5008265;28;20022;-81
2021/05/31 07:20:07;;;;;;;13.00;6.70;;;;;;;;;;5017685;28;20037;-81
2021/05/31 07:22:32;;;;;;;17.05;6.70;;;;;;;;;;5013675;28;20047;-81
2021/05/31 07:24:58;;;;;;;13.85;6.57;;;;;;;;;;5012789;28;20022;-81
2021/05/31 07:27:23;;;;;;;13.38;6.93;;;;;;;;;;5013014;28;20513;-81
2021/05/31 07:29:49;;;;;;;17.23;7.00;;;;;;;;;;5019955;28;20407;-81
2021/05/31 07:32:14;;;;;;;13.88;6.68;;;;;;;;;;5087774;28;20486;-81
2021/05/31 07:34:39;;;;;;;15.55;5.75;;;;;;;;;;5017733;28;20105;-81
2021/05/31 07:37:05;;;;;;;16.83;6.20;;;;;;;;;;5013192;28;20026;-81
2021/05/31 07:39:30;;;;;;;14.95;6.85;;;;;;;;;;5012754;28;20033;-81
2021/05/31 07:41:56;;;;;;;11.98;7.00;;;;;;;;;;5012494;28;20134;-81
2021/05/31 07:44:21;;;;;;;16.13;6.88;;;;;;;;;;5012674;28;20030;-81
2021/05/31 07:46:46;;;;;;;12.82;6.38;;;;;;;;;;5019287;28;20018;-81
2021/05/31 07:49:12;;;;;;;11.38;5.50;;;;;;;;;;5067495;28;20023;-81
2021/05/31 07:51:42;;;;;;;17.35;6.60;;;;;;;;;;5070634;28;20015;-81
2021/05/31 07:54:08;;;;;;;15.80;6.43;;;;;;;;;;5027928;28;20034;-81
2021/05/31 07:56:33;;;;;;;14.60;6.03;;;;;;;;;;5012274;28;20426;-81
2021/05/31 07:58:58;;;;;;;16.63;5.43;;;;;;;;;;5012107;28;20448;-81
2021/05/31 08:01:24;;;;;;;11.93;5.85;;;;;;;;;;5015135;28;20450;-81
2021/05/31 08:03:50;;;;;;;13.77;5.80;;;;;;;;;;5053156;28;20366;-81
2021/05/31 08:06:15;;;;;;;10.05;4.45;;;;;;;;;;5039042;28;20022;-81
2021/05/31 08:08:42;;;;;;;13.45;5.10;;;;;;;;;;5012283;28;20025;-81
2021/05/31 08:11:08;;;;;;;8.73;4.88;;;;;;;;;;5012192;28;20014;-81
2021/05/31 08:13:33;;;;;;;6.30;4.20;;;;;;;;;;5011787;28;20048;-81
2021/05/31 08:15:58;;;;;;;9.90;4.53;;;;;;;;;;5011823;28;20018;-81
2021/05/31 08:18:23;;;;;;;8.80;4.38;;;;;;;;;;5012083;28;20090;-81
2021/05/31 08:20:50;;;;;;;9.18;4.35;;;;;;;;;;5012156;28;20366;-81
2021/05/31 08:23:15;;;;;;;10.35;4.28;;;;;;;;;;5011816;28;20085;-81
2021/05/31 08:25:41;;;;;;;5.80;4.20;;;;;;;;;;5011912;28;20088;-81
2021/05/31 08:28:06;;;;;;;15.05;4.30;;;;;;;;;;5010458;28;20026;-81
2021/05/31 08:30:31;;;;;;;6.63;3.95;;;;;;;;;;5009871;28;20521;-81
2021/05/31 08:32:58;;;;;;;7.10;3.70;;;;;;;;;;5009212;28;20113;-82
2021/05/31 08:35:23;;;;;;;10.07;4.40;;;;;;;;;;5010347;28;20511;-81
2021/05/31 08:37:48;;;;;;;8.52;3.97;;;;;;;;;;5010082;28;20026;-82
2021/05/31 08:40:14;;;;;;;6.10;3.55;;;;;;;;;;5010296;28;20137;-82
2021/05/31 08:42:39;;;;;;;8.45;3.33;;;;;;;;;;5009140;28;20034;-81
2021/05/31 08:45:06;;;;;;;10.18;3.80;;;;;;;;;;5010055;28;20430;-81
2021/05/31 08:47:37;;;;;;;9.00;4.00;;;;;;;;;;5009085;28;20559;-81
2021/05/31 08:50:03;;;;;;;6.18;3.80;;;;;;;;;;5017125;28;20034;-81
2021/05/31 08:52:28;;;;;;;6.55;3.58;;;;;;;;;;5012433;28;20169;-81
2021/05/31 08:54:53;;;;;;;10.82;4.03;;;;;;;;;;5009901;28;20496;-81
2021/05/31 08:57:20;;;;;;;7.82;3.22;;;;;;;;;;5009818;28;20113;-81
2021/05/31 08:59:45;;;;;;;5.25;3.63;;;;;;;;;;5011625;28;20030;-81
2021/05/31 09:02:10;;;;;;;7.72;3.28;;;;;;;;;;5016139;28;20017;-81
2021/05/31 09:04:44;;;;;;;9.27;3.70;;;;;;;;;;5009872;28;20018;-81
2021/05/31 09:07:09;;;;;;;5.90;3.33;;;;;;;;;;5011877;28;20021;-81
2021/05/31 09:09:41;;;;;;;5.28;3.38;;;;;;;;;;5016708;28;20396;-81
2021/05/31 09:12:08;;;;;;;8.70;3.90;;;;;;;;;;5011548;28;20067;-81
2021/05/31 09:14:33;;;;;;;11.77;3.85;;;;;;;;;;5011178;28;20026;-81
2021/05/31 09:16:59;;;;;;;8.45;3.63;;;;;;;;;;5034911;27;20019;-81
2021/05/31 09:19:24;;;;;;;12.32;3.70;;;;;;;;;;5056288;28;20055;-81
2021/05/31 09:21:51;;;;;;;6.07;3.33;;;;;;;;;;5012134;28;20476;-81
2021/05/31 09:24:22;;;;;;;5.57;3.17;;;;;;;;;;5010924;28;20087;-81
2021/05/31 09:26:48;;;;;;;4.97;3.28;;;;;;;;;;5009303;28;20105;-81
2021/05/31 09:29:13;;;;;;;6.18;3.45;;;;;;;;;;5009597;28;20113;-81
2021/05/31 09:31:38;;;;;;;11.63;3.70;;;;;;;;;;5010828;28;20041;-82
2021/05/31 09:34:05;;;;;;;6.78;3.85;;;;;;;;;;5009675;28;20030;-81
2021/05/31 09:36:30;;;;;;;6.75;3.67;;;;;;;;;;5009175;28;20025;-81
2021/05/31 09:38:56;;;;;;;7.20;3.40;;;;;;;;;;5009276;28;20144;-81
2021/05/31 09:41:26;;;;;;;8.25;3.70;;;;;;;;;;5029196;28;20014;-82
2021/05/31 09:43:52;;;;;;;9.77;3.90;;;;;;;;;;5051597;28;20518;-82
2021/05/31 09:46:17;;;;;;;9.65;3.33;;;;;;;;;;5009418;28;20386;-81
2021/05/31 09:48:42;;;;;;;6.60;3.22;;;;;;;;;;5010535;28;20025;-81
2021/05/31 09:51:08;;;;;;;8.63;3.47;;;;;;;;;;5031081;28;20049;-81
2021/05/31 09:53:36;;;;;;;7.68;3.30;;;;;;;;;;5034580;28;20029;-82
2021/05/31 09:56:12;;;;;;;9.15;3.22;;;;;;;;;;5029976;28;20029;-82
2021/05/31 09:58:45;;;;;;;5.60;3.33;;;;;;;;;;5009573;28;20014;-82
2021/05/31 10:01:10;;;;;;;8.77;3.80;;;;;;;;;;5010008;28;20057;-82
2021/05/31 10:03:51;;;;;;;8.07;2.80;;;;;;;;;;5010476;28;20071;-82
2021/05/31 10:06:40;;;;;;;7.18;3.10;;;;;;;;;;5010038;28;20112;-82
2021/05/31 10:09:06;;;;;;;11.10;3.40;;;;;;;;;;5009260;28;20057;-81
2021/05/31 10:11:31;;;;;;;10.93;3.17;;;;;;;;;;5010221;28;20049;-82
2021/05/31 10:13:57;;;;;;;9.55;3.30;;;;;;;;;;5047109;27;20033;-82
2021/05/31 10:16:23;;;;;;;6.70;3.35;;;;;;;;;;5027376;28;20434;-82
2021/05/31 10:18:48;;;;;;;9.55;3.72;;;;;;;;;;5006164;28;20051;-82
2021/05/31 10:21:14;;;;;;;5.78;3.70;;;;;;;;;;5009958;28;20049;-82
2021/05/31 10:23:39;;;;;;;9.23;3.20;;;;;;;;;;5009294;28;20024;-82
2021/05/31 10:26:09;;;;;;;7.40;3.10;;;;;;;;;;5009680;28;20558;-81
2021/05/31 10:28:36;;;;;;;8.95;3.40;;;;;;;;;;5010594;28;20577;-81
2021/05/31 10:31:03;;;;;;;5.85;2.78;;;;;;;;;;5013648;28;20025;-81
2021/05/31 10:33:29;;;;;;;6.97;3.10;;;;;;;;;;5008359;28;20030;-82
2021/05/31 10:35:59;;;;;;;5.07;3.08;;;;;;;;;;5008540;28;20030;-81
2021/05/31 10:38:26;;;;;;;6.57;2.70;;;;;;;;;;5010300;28;20098;-82
2021/05/31 10:40:52;;;;;;;5.18;2.92;;;;;;;;;;5010837;28;20018;-81
2021/05/31 10:43:21;;;;;;;6.60;2.72;;;;;;;;;;5010022;28;20469;-81
2021/05/31 10:45:47;;;;;;;5.57;3.60;;;;;;;;;;5011372;28;20041;-82
2021/05/31 10:48:13;;;;;;;4.35;2.80;;;;;;;;;;5009815;28;20045;-81
2021/05/31 10:50:39;;;;;;;4.43;2.60;;;;;;;;;;5009523;28;20465;-82
2021/05/31 10:53:26;;;;;;;5.05;2.70;;;;;;;;;;5007512;28;20070;-82
2021/05/31 10:55:56;;;;;;;8.38;2.50;;;;;;;;;;5006337;28;20726;-82
2021/05/31 10:58:23;;;;;;;5.53;2.92;;;;;;;;;;5008099;28;20022;-82
2021/05/31 11:00:55;;;;;;;6.82;2.58;;;;;;;;;;5016661;28;20021;-82
2021/05/31 11:03:20;;;;;;;5.38;2.88;;;;;;;;;;5009456;28;20022;-82
2021/05/31 11:05:46;;;;;;;5.78;2.90;;;;;;;;;;5009327;28;20029;-82
2021/05/31 11:08:11;;;;;;;6.25;3.10;;;;;;;;;;5008941;28;20105;-82
2021/05/31 11:10:36;;;;;;;5.20;2.92;;;;;;;;;;5009029;28;20071;-82
2021/05/31 11:13:09;;;;;;;8.13;2.90;;;;;;;;;;5007945;28;20022;-82
2021/05/31 11:15:34;;;;;;;5.53;2.75;;;;;;;;;;5008155;28;20358;-82
2021/05/31 11:17:59;;;;;;;6.50;3.17;;;;;;;;;;5010107;28;20087;-82
2021/05/31 11:20:27;;;;;;;9.40;3.00;;;;;;;;;;5009215;28;20380;-82
2021/05/31 11:22:57;;;;;;;5.80;3.67;;;;;;;;;;5009187;28;20018;-82
2021/05/31 11:25:23;;;;;;;5.32;3.20;;;;;;;;;;5008969;28;20018;-81
2021/05/31 11:28:07;;;;;;;7.05;3.13;;;;;;;;;;5024809;28;20018;-82
2021/05/31 11:30:34;;;;;;;6.22;3.20;;;;;;;;;;5009548;28;20018;-81
2021/05/31 11:33:00;;;;;;;7.40;3.45;;;;;;;;;;5009268;28;20076;-82
2021/05/31 11:35:26;;;;;;;5.75;3.08;;;;;;;;;;5007166;28;20469;-82
2021/05/31 11:37:52;;;;;;;6.28;3.22;;;;;;;;;;5007727;28;20022;-82
2021/05/31 11:40:21;;;;;;;9.30;3.10;;;;;;;;;;5008837;28;20045;-81
2021/05/31 11:42:48;;;;;;;5.95;3.60;;;;;;;;;;5007648;28;20026;-82
2021/05/31 11:45:14;;;;;;;5.53;3.30;;;;;;;;;;5008207;28;20056;-82
2021/05/31 11:47:39;;;;;;;5.85;2.50;;;;;;;;;;5008951;28;20010;-82
2021/05/31 11:50:04;;;;;;;11.10;3.20;;;;;;;;;;5034524;28;20018;-82
2021/05/31 11:52:30;;;;;;;9.00;3.58;;;;;;;;;;5007537;28;20477;-81
2021/05/31 11:54:55;;;;;;;12.20;4.03;;;;;;;;;;5008778;28;20022;-82
2021/05/31 11:57:21;;;;;;;8.57;3.63;;;;;;;;;;5014525;28;20469;-82
2021/05/31 11:59:51;;;;;;;10.57;3.42;;;;;;;;;;5006877;28;20117;-82
2021/05/31 12:02:17;;;;;;;5.75;3.20;;;;;;;;;;5008410;28;20033;-82
2021/05/31 12:04:43;;;;;;;6.32;2.25;;;;;;;;;;5049384;28;20488;-82
2021/05/31 12:07:09;;;;;;;9.00;2.85;;;;;;;;;;5020708;28;20034;-82
2021/05/31 12:09:38;;;;;;;8.27;3.22;;;;;;;;;;5027884;28;20158;-81
2021/05/31 12:12:04;;;;;;;6.43;3.35;;;;;;;;;;5059287;28;20031;-82
2021/05/31 12:14:29;;;;;;;5.15;2.88;;;;;;;;;;5011494;28;20419;-82
2021/05/31 12:16:58;;;;;;;5.25;3.05;;;;;;;;;;5009183;28;20032;-81
2021/05/31 12:19:25;;;;;;;5.28;2.90;;;;;;;;;;5043719;28;20047;-82
2021/05/31 12:21:50;;;;;;;6.93;3.13;;;;;;;;;;5066772;28;20044;-82
2021/05/31 12:24:22;;;;;;;5.85;3.00;;;;;;;;;;5065237;28;20017;-82
2021/05/31 12:26:47;;;;;;;;;;;;;;;;;;5059862;28;20016;-82
2021/05/31 12:29:12;;;;;;;9.30;3.28;;;;;;;;;;5032462;28;19928;-82
2021/05/31 12:31:38;;;;;;;6.07;3.33;;;;;;;;;;5056160;28;20012;-82
2021/05/31 12:34:03;;;;;;;8.25;3.97;;;;;;;;;;5021028;28;20033;-83
2021/05/31 12:36:32;;;;;;;5.75;3.20;;;;;;;;;;5034854;28;20397;-81
2021/05/31 12:38:57;;;;;;;5.15;3.08;;;;;;;;;;5035835;28;20479;-82
2021/05/31 12:41:23;;;;;;;4.68;3.17;;;;;;;;;;5053148;28;20239;-82
2021/05/31 12:43:49;;;;;;;5.85;3.65;;;;;;;;;;5054692;28;20032;-82
2021/05/31 12:46:17;;;;;;;6.72;3.33;;;;;;;;;;5010609;28;20022;-82
2021/05/31 12:48:46;;;;;;;6.97;2.97;;;;;;;;;;5048291;28;20466;-81
2021/05/31 12:51:15;;;;;;;9.55;3.50;;;;;;;;;;5029417;28;20022;-82
2021/05/31 12:53:41;;;;;;;5.43;3.33;;;;;;;;;;5030647;28;20456;-82
2021/05/31 12:56:06;;;;;;;7.50;3.75;;;;;;;;;;5011124;28;20358;-82
2021/05/31 12:58:32;;;;;;;8.18;3.53;;;;;;;;;;5011435;28;20108;-82
2021/05/31 13:00:58;;;;;;;7.53;3.35;;;;;;;;;;5023596;28;20037;-82
2021/05/31 13:03:28;;;;;;;4.97;3.30;;;;;;;;;;5048745;28;20481;-82
2021/05/31 13:05:53;;;;;;;5.50;3.45;;;;;;;;;;5055873;28;20049;-82
2021/05/31 13:08:20;;;;;;;7.30;3.90;;;;;;;;;;5050503;28;20454;-81
2021/05/31 13:10:53;;;;;;;11.57;3.20;;;;;;;;;;5060919;28;20110;-81
2021/05/31 13:13:20;;;;;;;8.32;3.10;;;;;;;;;;5069204;28;20019;-82
2021/05/31 13:15:51;;;;;;;11.77;4.00;;;;;;;;;;5081148;28;20024;-82
2021/05/31 13:18:29;;;;;;;9.25;3.60;;;;;;;;;;5038738;28;20032;-82
2021/05/31 13:20:56;;;;;;;6.13;3.47;;;;;;;;;;5059672;28;20031;-81
2021/05/31 13:23:25;;;;;;;6.10;3.15;;;;;;;;;;5037716;28;20502;-82
2021/05/31 13:25:51;;;;;;;5.50;3.25;;;;;;;;;;5037383;28;20018;-82
2021/05/31 13:28:16;;;;;;;7.47;3.25;;;;;;;;;;5065263;28;20012;-82
2021/05/31 13:30:42;;;;;;;8.68;3.22;;;;;;;;;;5035949;28;20022;-82
2021/05/31 13:33:10;;;;;;;3.72;3.15;;;;;;;;;;5069004;28;20334;-82
2021/05/31 13:35:35;;;;;;;9.43;3.95;;;;;;;;;;5044706;28;20044;-82
2021/05/31 13:38:01;;;;;;;7.30;3.42;;;;;;;;;;5046574;28;20014;-82
2021/05/31 13:40:31;;;;;;;8.55;3.20;;;;;;;;;;5061211;28;20055;-82
2021/05/31 13:43:07;;;;;;;8.70;3.53;;;;;;;;;;5063829;28;20659;-81
2021/05/31 13:45:34;;;;;;;8.52;3.30;;;;;;;;;;5058367;28;20047;-82
2021/05/31 13:47:59;;;;;;;6.78;3.45;;;;;;;;;;5059512;28;20493;-82
2021/05/31 13:50:26;;;;;;;6.30;3.40;;;;;;;;;;5048120;28;20024;-82
2021/05/31 13:52:51;;;;;;;6.97;3.47;;;;;;;;;;5030178;28;20041;-83
2021/05/31 13:55:16;;;;;;;6.78;3.25;;;;;;;;;;4999649;28;20037;-82
2021/05/31 13:57:43;;;;;;;7.10;3.60;;;;;;;;;;5052935;28;20443;-82
2021/05/31 14:00:12;;;;;;;9.48;3.58;;;;;;;;;;5074607;28;20024;-82
2021/05/31 14:02:37;;;;;;;8.35;3.55;;;;;;;;;;5082857;28;20093;-82
2021/05/31 14:05:03;;;;;;;5.47;3.55;;;;;;;;;;5090375;28;20015;-81
2021/05/31 14:07:28;;;;;;;8.55;4.07;;;;;;;;;;5103819;28;20053;-82
2021/05/31 14:09:55;;;;;;;8.63;4.25;;;;;;;;;;5061640;28;20029;-82
2021/05/31 14:12:20;;;;;;;7.22;3.83;;;;;;;;;;5074069;28;20028;-82
2021/05/31 14:14:45;;;;;;;6.97;3.72;;;;;;;;;;5084564;28;20032;-82
2021/05/31 14:17:10;;;;;;;9.88;4.18;;;;;;;;;;5042126;28;20479;-82
2021/05/31 14:19:36;;;;;;;5.35;3.72;;;;;;;;;;5095415;28;20027;-82
2021/05/31 14:22:03;;;;;;;8.68;3.78;;;;;;;;;;5095869;28;20020;-82
2021/05/31 14:24:29;;;;;;;7.20;3.80;;;;;;;;;;5056941;28;20036;-82
2021/05/31 14:26:54;;;;;;;6.05;3.35;;;;;;;;;;5038346;28;20026;-82
2021/05/31 14:29:19;;;;;;;10.18;3.75;;;;;;;;;;5108020;28;20024;-82
2021/05/31 14:31:44;;;;;;;6.00;4.00;;;;;;;;;;5099479;28;20136;-82
2021/05/31 14:34:10;;;;;;;7.20;3.60;;;;;;;;;;5099181;28;20020;-82
2021/05/31 14:36:35;;;;;;;7.03;4.28;;;;;;;;;;5048148;28;20022;-82
2021/05/31 14:39:00;;;;;;;8.00;4.00;;;;;;;;;;5088749;28;20031;-83
2021/05/31 14:41:26;;;;;;;9.93;3.70;;;;;;;;;;5068448;28;20022;-83
2021/05/31 14:43:51;;;;;;;8.18;3.78;;;;;;;;;;5053457;28;20423;-82